createdAt,value
2018-10-07T00:00:09.705Z,11.50
2018-10-07T00:04:50.298Z,12.65
2018-10-07T00:09:30.973Z,12.13
2018-10-07T00:14:10.804Z,8.80
2018-10-07T00:18:50.808Z,14.65
2018-10-07T00:23:30.919Z,10.23
2018-10-07T00:28:11.517Z,9.40
2018-10-07T00:32:52.247Z,11.23
2018-10-07T00:37:32.376Z,15.50
2018-10-07T00:42:12.545Z,12.10
2018-10-07T00:46:52.812Z,10.55
2018-10-07T00:51:32.756Z,10.93
2018-10-07T00:56:14.645Z,13.20
2018-10-07T01:00:54.866Z,13.72
2018-10-07T01:05:34.760Z,19.37
2018-10-07T01:10:14.778Z,16.40
2018-10-07T01:14:55.560Z,14.47
2018-10-07T01:19:36.361Z,11.03
2018-10-07T01:24:16.533Z,10.88
2018-10-07T01:28:56.394Z,14.07
2018-10-07T01:33:36.461Z,8.97
2018-10-07T01:38:16.526Z,8.67
2018-10-07T01:42:56.924Z,13.60
2018-10-07T01:47:36.561Z,9.40
2018-10-07T01:52:17.457Z,12.97
2018-10-07T01:56:57.206Z,15.20
2018-10-07T02:01:37.951Z,11.00
2018-10-07T02:06:17.929Z,20.13
2018-10-07T02:10:57.653Z,20.43
2018-10-07T02:15:37.396Z,18.80
2018-10-07T02:20:17.445Z,17.17
2018-10-07T02:24:57.416Z,12.40
2018-10-07T02:29:37.291Z,10.57
2018-10-07T02:34:17.704Z,32.80
2018-10-07T02:38:58.015Z,16.33
2018-10-07T02:43:37.989Z,14.13
2018-10-07T02:48:19.710Z,12.00
2018-10-07T02:53:00.305Z,11.60
2018-10-07T02:57:41.068Z,12.23
2018-10-07T03:02:21.969Z,11.80
2018-10-07T03:07:03.656Z,11.53
2018-10-07T03:11:43.700Z,12.50
2018-10-07T03:16:24.226Z,11.73
2018-10-07T03:21:04.999Z,14.60
2018-10-07T03:25:45.111Z,14.28
2018-10-07T03:30:25.552Z,15.33
2018-10-07T03:35:05.372Z,20.80
2018-10-07T03:39:45.210Z,27.90
2018-10-07T03:44:25.560Z,17.20
2018-10-07T03:49:05.665Z,15.53
2018-10-07T03:53:45.991Z,18.43
2018-10-07T03:58:25.933Z,17.17
2018-10-07T04:03:06.003Z,14.00
2018-10-07T04:07:46.457Z,16.33
2018-10-07T04:12:26.994Z,21.03
2018-10-07T04:17:07.328Z,17.17
2018-10-07T04:21:51.411Z,14.80
2018-10-07T04:26:31.605Z,14.23
2018-10-07T04:31:12.367Z,13.78
2018-10-07T04:35:52.120Z,12.77
2018-10-07T04:40:32.356Z,13.50
2018-10-07T04:45:12.338Z,14.35
2018-10-07T04:49:52.657Z,12.50
2018-10-07T04:54:32.880Z,13.53
2018-10-07T04:59:13.368Z,12.55
2018-10-07T05:03:53.551Z,13.73
2018-10-07T05:08:33.582Z,22.50
2018-10-07T05:13:17.897Z,18.45
2018-10-07T05:18:00.784Z,18.90
2018-10-07T05:22:42.160Z,15.28
2018-10-07T05:27:25.191Z,18.62
2018-10-07T05:32:07.552Z,17.50
2018-10-07T05:36:48.714Z,15.63
2018-10-07T05:41:29.240Z,14.20
2018-10-07T05:46:13.046Z,16.55
2018-10-07T05:50:54.497Z,16.73
2018-10-07T05:55:35.401Z,14.25
2018-10-07T06:00:16.325Z,15.85
2018-10-07T06:04:57.209Z,14.78
2018-10-07T06:09:37.824Z,39.05
2018-10-07T06:14:30.013Z,61.45
2018-10-07T06:19:10.604Z,21.45
2018-10-07T06:23:51.013Z,15.78
2018-10-07T06:28:31.064Z,15.05
2018-10-07T06:33:10.789Z,14.23
2018-10-07T06:37:51.108Z,14.13
2018-10-07T06:42:31.289Z,15.18
2018-10-07T06:47:10.997Z,18.27
2018-10-07T06:51:50.827Z,17.62
2018-10-07T06:56:30.896Z,15.80
2018-10-07T07:01:11.448Z,14.90
2018-10-07T07:05:51.436Z,21.02
2018-10-07T07:10:31.697Z,20.52
2018-10-07T07:15:12.372Z,17.60
2018-10-07T07:19:52.735Z,17.32
2018-10-07T07:24:32.741Z,16.65
2018-10-07T07:29:12.923Z,16.70
2018-10-07T07:33:53.580Z,17.07
2018-10-07T07:38:33.419Z,16.02
2018-10-07T07:43:14.133Z,15.58
2018-10-07T07:47:54.913Z,17.05
2018-10-07T07:52:35.086Z,14.03
2018-10-07T07:57:14.880Z,13.70
2018-10-07T08:01:54.674Z,14.05
2018-10-07T08:06:34.834Z,53.13
2018-10-07T08:11:14.738Z,17.92
2018-10-07T08:15:54.429Z,10.23
2018-10-07T08:20:34.379Z,9.85
2018-10-07T08:25:14.162Z,9.15
2018-10-07T08:29:55.037Z,10.08
2018-10-07T08:34:35.352Z,9.40
2018-10-07T08:39:15.189Z,9.78
2018-10-07T08:43:55.605Z,13.03
2018-10-07T08:48:35.992Z,12.63
2018-10-07T08:53:17.097Z,12.23
2018-10-07T08:57:57.618Z,12.68
2018-10-07T09:02:37.509Z,11.43
2018-10-07T09:07:17.498Z,10.58
2018-10-07T09:12:04.666Z,10.60
2018-10-07T09:16:51.100Z,10.70
2018-10-07T09:21:31.993Z,11.00
2018-10-07T09:26:12.436Z,11.55
2018-10-07T09:30:52.641Z,11.70
2018-10-07T09:35:32.652Z,10.72
2018-10-07T09:40:12.920Z,9.58
2018-10-07T09:44:52.975Z,10.38
2018-10-07T09:49:33.048Z,8.93
2018-10-07T09:54:13.275Z,9.05
2018-10-07T09:58:53.374Z,10.23
2018-10-07T10:03:34.305Z,9.55
2018-10-07T10:08:14.225Z,10.20
2018-10-07T10:12:56.603Z,8.60
2018-10-07T10:17:40.109Z,9.10
2018-10-07T10:22:28.849Z,9.23
2018-10-07T10:27:31.928Z,9.48
2018-10-07T10:32:48.298Z,10.00
2018-10-07T10:42:43.554Z,9.70
2018-10-07T10:47:33.523Z,9.63
2018-10-07T10:52:24.860Z,10.28
2018-10-07T10:57:09.533Z,9.68
2018-10-07T11:02:01.705Z,10.13
2018-10-07T11:08:56.020Z,9.88
2018-10-07T11:13:43.232Z,11.65
2018-10-07T11:18:34.382Z,10.72
2018-10-07T11:23:33.083Z,11.28
2018-10-07T11:32:53.376Z,11.40
2018-10-07T11:38:52.643Z,13.40
2018-10-07T11:44:40.197Z,14.53
2018-10-07T11:49:24.028Z,13.32
2018-10-07T11:54:09.224Z,14.58
2018-10-07T11:58:49.148Z,14.65
2018-10-07T12:03:29.065Z,14.65
2018-10-07T12:08:09.114Z,15.05
2018-10-07T12:12:49.007Z,15.55
2018-10-07T12:17:28.883Z,15.30
2018-10-07T12:22:09.104Z,15.28
2018-10-07T12:26:49.557Z,14.50
2018-10-07T12:31:30.163Z,13.48
2018-10-07T12:36:10.045Z,12.93
2018-10-07T12:40:49.854Z,12.25
2018-10-07T12:45:29.676Z,12.58
2018-10-07T12:50:09.489Z,13.65
2018-10-07T12:54:49.480Z,11.90
2018-10-07T12:59:29.308Z,12.07
2018-10-07T13:04:09.245Z,14.73
2018-10-07T13:08:49.201Z,14.68
2018-10-07T13:13:29.093Z,13.62
2018-10-07T13:18:08.974Z,14.83
2018-10-07T13:22:48.990Z,12.80
2018-10-07T13:27:28.930Z,11.88
2018-10-07T13:32:09.342Z,11.63
2018-10-07T13:36:49.243Z,11.85
2018-10-07T13:41:29.017Z,12.85
2018-10-07T13:46:09.389Z,14.20
2018-10-07T13:50:49.192Z,14.10
2018-10-07T13:55:29.425Z,13.75
2018-10-07T14:00:09.117Z,14.58
2018-10-07T14:04:49.045Z,16.48
2018-10-07T14:09:29.001Z,18.80
2018-10-07T14:14:08.775Z,19.77
2018-10-07T14:18:48.656Z,19.50
2018-10-07T14:23:28.417Z,19.23
2018-10-07T14:28:08.472Z,19.50
2018-10-07T14:32:48.925Z,20.10
2018-10-07T14:37:28.884Z,17.95
2018-10-07T14:42:08.648Z,16.90
2018-10-07T14:46:58.001Z,20.02
2018-10-07T14:51:57.983Z,19.17
2018-10-07T14:56:37.884Z,21.35
2018-10-07T15:01:17.948Z,20.82
2018-10-07T15:05:59.304Z,21.68
2018-10-07T15:10:39.733Z,21.55
2018-10-07T15:15:20.290Z,22.65
2018-10-07T15:20:00.485Z,22.62
2018-10-07T15:24:40.603Z,21.35
2018-10-07T15:29:20.475Z,22.50
2018-10-07T15:34:00.288Z,22.00
2018-10-07T15:38:40.389Z,23.73
2018-10-07T15:43:20.248Z,21.40
2018-10-07T15:48:00.094Z,23.40
2018-10-07T15:52:40.127Z,23.10
2018-10-07T15:57:20.206Z,22.85
2018-10-07T16:01:59.952Z,23.00
2018-10-07T16:06:39.832Z,22.87
2018-10-07T16:11:19.696Z,22.75
2018-10-07T16:16:00.221Z,23.57
2018-10-07T16:20:40.131Z,23.35
2018-10-07T16:25:19.976Z,22.22
2018-10-07T16:30:01.092Z,24.32
2018-10-07T16:34:40.864Z,22.42
2018-10-07T16:39:20.938Z,19.75
2018-10-07T16:44:01.583Z,19.50
2018-10-07T16:48:41.527Z,18.05
2018-10-07T16:53:21.722Z,17.77
2018-10-07T16:58:01.578Z,18.82
2018-10-07T17:02:42.668Z,18.42
2018-10-07T17:07:23.735Z,19.70
2018-10-07T17:12:04.033Z,19.07
2018-10-07T17:16:45.709Z,18.65
2018-10-07T17:21:25.582Z,17.77
2018-10-07T17:26:05.393Z,18.55
2018-10-07T17:30:45.240Z,18.00
2018-10-07T17:35:24.998Z,18.25
2018-10-07T17:40:04.985Z,19.17
2018-10-07T17:44:44.636Z,19.42
2018-10-07T17:49:24.475Z,18.45
2018-10-07T17:54:04.973Z,22.58
2018-10-07T17:58:44.900Z,20.80
2018-10-07T18:03:24.821Z,20.77
2018-10-07T18:08:04.660Z,22.95
2018-10-07T18:12:44.388Z,22.20
2018-10-07T18:17:24.009Z,24.50
2018-10-07T18:22:04.896Z,21.52
2018-10-07T18:26:44.774Z,22.93
2018-10-07T18:31:24.891Z,22.42
2018-10-07T18:36:05.468Z,23.15
2018-10-07T18:40:45.922Z,19.98
2018-10-07T18:45:26.419Z,27.58
2018-10-07T18:50:06.662Z,25.08
2018-10-07T18:54:47.098Z,22.85
2018-10-07T18:59:27.429Z,24.92
2018-10-07T19:04:08.033Z,24.55
2018-10-07T19:08:49.052Z,23.38
2018-10-07T19:13:29.341Z,26.57
2018-10-07T19:18:09.572Z,25.85
2018-10-07T19:22:49.860Z,25.92
2018-10-07T19:27:30.185Z,24.92
2018-10-07T19:32:10.586Z,23.85
2018-10-07T19:36:51.262Z,24.63
2018-10-07T19:41:31.523Z,38.38
2018-10-07T19:46:12.091Z,38.98
2018-10-07T19:50:52.600Z,46.68
2018-10-07T19:55:33.400Z,38.42
2018-10-07T20:00:13.785Z,61.50
2018-10-07T20:04:53.728Z,52.50
2018-10-07T20:09:33.741Z,25.70
2018-10-07T20:14:13.671Z,20.60
2018-10-07T20:18:54.009Z,22.82
2018-10-07T20:23:34.160Z,21.55
2018-10-07T20:28:15.178Z,24.60
2018-10-07T20:32:55.328Z,21.52
2018-10-07T20:37:35.380Z,21.65
2018-10-07T20:42:15.084Z,21.40
2018-10-07T20:46:55.860Z,24.95
2018-10-07T20:51:35.936Z,22.15
2018-10-07T20:56:16.359Z,32.35
2018-10-07T21:00:56.212Z,27.00
2018-10-07T21:05:36.257Z,37.63
2018-10-07T21:10:16.204Z,51.92
2018-10-07T21:14:57.961Z,56.18
2018-10-07T21:19:39.112Z,45.55
2018-10-07T21:24:19.780Z,58.13
2018-10-07T21:29:00.538Z,41.28
2018-10-07T21:33:40.652Z,24.90
2018-10-07T21:38:20.917Z,23.50
2018-10-07T21:43:01.380Z,26.75
2018-10-07T21:47:41.417Z,20.60
2018-10-07T21:52:21.855Z,17.98
2018-10-07T21:57:01.618Z,16.25
2018-10-07T22:01:42.000Z,17.00
2018-10-07T22:06:22.428Z,17.98
2018-10-07T22:11:04.101Z,18.37
2018-10-07T22:15:43.998Z,16.90
2018-10-07T22:20:24.575Z,16.27
2018-10-07T22:25:05.636Z,18.02
2018-10-07T22:29:46.154Z,17.77
2018-10-07T22:34:26.089Z,16.77
2018-10-07T22:39:07.824Z,15.50
2018-10-07T22:43:47.899Z,17.05
2018-10-07T22:48:27.967Z,34.23
2018-10-07T22:53:07.967Z,40.67
2018-10-07T22:57:47.677Z,33.67
2018-10-07T23:02:27.741Z,55.55
2018-10-07T23:07:08.693Z,32.35
2018-10-07T23:11:49.612Z,42.88
2018-10-07T23:16:30.256Z,18.48
2018-10-07T23:21:10.028Z,39.08
2018-10-07T23:25:50.638Z,19.80
2018-10-07T23:30:30.701Z,36.13
2018-10-07T23:35:11.279Z,36.38
2018-10-07T23:39:51.232Z,29.50
2018-10-07T23:44:31.735Z,26.77
2018-10-07T23:49:12.096Z,22.67
2018-10-07T23:53:52.908Z,23.43
2018-10-07T23:58:32.757Z,17.13
